Time;durP1;ratioP1;P1;durP2;ratioP2;P2;SDS_P1;SDS_P2;PMS_P1;PMS_P2;Temp;Humidity;BMP_temperature;BMP_pressure;BME280_temperature;BME280_humidity;BME280_pressure;Samples;Min_cycle;Max_cycle;Signal;HPM_P1;HPM_P2
2022/09/11 00:01:32;;;;;;;4.10;3.65;;;16.60;28.90;;;;;;5066595;28;34503;-78
2022/09/11 00:03:58;;;;;;;4.93;4.20;;;16.60;29.10;;;;;;5070269;28;34929;-77
2022/09/11 00:06:25;;;;;;;4.43;4.03;;;16.60;29.30;;;;;;5087182;28;34228;-77
2022/09/11 00:08:53;;;;;;;4.15;3.75;;;16.50;29.30;;;;;;5086232;28;35841;-77
2022/09/11 00:11:21;;;;;;;4.55;3.90;;;16.50;29.30;;;;;;5070361;28;34320;-77
2022/09/11 00:13:49;;;;;;;4.43;3.75;;;16.50;29.00;;;;;;5086742;28;34090;-78
2022/09/11 00:16:20;;;;;;;5.80;4.05;;;16.40;28.70;;;;;;5086778;28;34284;-77
2022/09/11 00:18:47;;;;;;;4.63;3.95;;;16.40;28.60;;;;;;5070104;28;35825;-77
2022/09/11 00:21:20;;;;;;;3.75;3.20;;;16.30;28.60;;;;;;5086761;28;34285;-77
2022/09/11 00:23:50;;;;;;;11.02;3.95;;;16.30;29.00;;;;;;5086398;28;34323;-77
2022/09/11 00:26:18;;;;;;;4.70;3.42;;;16.20;28.50;;;;;;5087804;28;34259;-77
2022/09/11 00:28:45;;;;;;;6.75;4.15;;;16.20;28.40;;;;;;5086620;28;36570;-77
2022/09/11 00:31:16;;;;;;;5.45;4.53;;;16.10;28.70;;;;;;5104611;28;34001;-76
2022/09/11 00:33:43;;;;;;;6.00;4.30;;;16.10;29.00;;;;;;5070456;28;34192;-76
2022/09/11 00:36:14;;;;;;;5.53;4.28;;;16.00;28.90;;;;;;5079197;28;34333;-76
2022/09/11 00:38:41;;;;;;;8.60;4.55;;;16.00;28.80;;;;;;5076678;28;36673;-77
2022/09/11 00:41:14;;;;;;;8.40;4.38;;;15.90;28.80;;;;;;5086620;28;34149;-76
2022/09/11 00:44:04;;;;;;;6.55;3.72;;;15.90;29.00;;;;;;5104746;28;34106;-77
2022/09/11 00:46:41;;;;;;;9.40;4.30;;;15.80;29.10;;;;;;5104301;28;34261;-76
2022/09/11 00:49:29;;;;;;;5.25;4.15;;;15.80;29.10;;;;;;5103869;28;35065;-76
2022/09/11 00:52:01;;;;;;;6.30;3.63;;;15.70;29.30;;;;;;5065615;28;34231;-76
2022/09/11 00:54:32;;;;;;;5.43;4.35;;;15.70;28.70;;;;;;5077883;28;34252;-76
2022/09/11 00:57:01;;;;;;;4.88;4.10;;;15.60;29.10;;;;;;5064549;28;34646;-76
2022/09/11 00:59:30;;;;;;;5.22;4.07;;;15.60;29.10;;;;;;5069722;28;35855;-76
2022/09/11 01:01:56;;;;;;;4.95;4.40;;;15.50;29.30;;;;;;5085789;28;34187;-77
2022/09/11 01:04:22;;;;;;;4.70;3.67;;;15.50;28.80;;;;;;5086460;28;34490;-77
2022/09/11 01:06:54;;;;;;;6.72;3.83;;;15.50;28.70;;;;;;5086147;28;34405;-76
2022/09/11 01:09:20;;;;;;;5.40;4.35;;;15.40;28.70;;;;;;5085496;28;36377;-76
2022/09/11 01:12:02;;;;;;;4.53;3.95;;;15.40;28.70;;;;;;5104113;28;34206;-76
2022/09/11 01:14:52;;;;;;;8.43;4.45;;;15.40;29.00;;;;;;5086118;28;34203;-76
2022/09/11 01:17:34;;;;;;;4.95;4.43;;;15.30;29.00;;;;;;5063956;28;34166;-77
2022/09/11 01:20:23;;;;;;;4.68;3.88;;;15.30;29.20;;;;;;5064919;28;35637;-76
2022/09/11 01:23:07;;;;;;;5.78;4.30;;;15.30;29.30;;;;;;5085747;28;34095;-76
2022/09/11 01:25:59;;;;;;;6.28;3.88;;;15.30;29.10;;;;;;5061465;28;34082;-76
2022/09/11 01:28:56;;;;;;;4.05;3.65;;;15.20;29.60;;;;;;5032163;28;34303;-76
2022/09/11 01:31:29;;;;;;;4.25;3.85;;;15.20;29.30;;;;;;5092025;28;36787;-76
2022/09/11 01:34:01;;;;;;;8.25;4.13;;;15.20;28.80;;;;;;5084809;28;34266;-76
2022/09/11 01:36:33;;;;;;;6.82;4.55;;;15.10;29.10;;;;;;5102983;28;34357;-77
2022/09/11 01:39:03;;;;;;;4.60;4.00;;;15.00;28.70;;;;;;5068615;28;34117;-77
2022/09/11 01:41:52;;;;;;;5.57;4.20;;;15.00;29.10;;;;;;5103679;28;34998;-76
2022/09/11 01:44:25;;;;;;;4.60;3.97;;;15.00;29.30;;;;;;5085980;28;34302;-76
2022/09/11 01:46:53;;;;;;;8.80;4.30;;;14.90;29.20;;;;;;5068376;28;34300;-76
2022/09/11 01:49:34;;;;;;;4.95;4.03;;;14.90;29.00;;;;;;5085715;28;34648;-76
2022/09/11 01:52:05;;;;;;;4.45;4.05;;;14.90;29.00;;;;;;5065057;28;36016;-76
2022/09/11 01:54:41;;;;;;;11.93;5.03;;;14.90;28.80;;;;;;5065063;28;34246;-76
2022/09/11 01:57:24;;;;;;;5.82;4.30;;;14.90;28.90;;;;;;5084382;28;34250;-76
2022/09/11 01:59:55;;;;;;;5.95;4.18;;;14.90;29.00;;;;;;5084924;28;34380;-76
2022/09/11 02:02:27;;;;;;;5.55;4.47;;;14.80;29.40;;;;;;5063744;28;35628;-76
2022/09/11 02:05:14;;;;;;;5.25;4.53;;;14.80;29.30;;;;;;5085400;28;34403;-76
2022/09/11 02:07:48;;;;;;;8.48;4.53;;;14.80;29.60;;;;;;5071700;28;34286;-77
2022/09/11 02:10:19;;;;;;;5.22;4.45;;;14.80;28.40;;;;;;5088998;28;34615;-76
2022/09/11 02:12:56;;;;;;;6.80;4.82;;;14.80;28.10;;;;;;5088294;28;36820;-77
2022/09/11 02:15:30;;;;;;;9.07;5.20;;;14.80;28.80;;;;;;5072060;28;34092;-76
2022/09/11 02:18:02;;;;;;;11.65;5.22;;;14.80;29.50;;;;;;5088463;28;34338;-76
2022/09/11 02:20:30;;;;;;;7.20;5.35;;;14.80;29.10;;;;;;5088824;28;34427;-76
2022/09/11 02:22:56;;;;;;;7.13;4.88;;;14.80;29.20;;;;;;5087593;28;35606;-76
2022/09/11 02:25:22;;;;;;;9.10;5.55;;;14.80;28.80;;;;;;5087954;28;34454;-76
2022/09/11 02:27:49;;;;;;;8.65;5.40;;;14.80;29.50;;;;;;5104453;27;34090;-76
2022/09/11 02:30:15;;;;;;;7.80;5.10;;;14.80;29.10;;;;;;5088802;28;34087;-76
2022/09/11 02:32:43;;;;;;;6.85;5.32;;;14.80;29.40;;;;;;5087996;28;35532;-77
2022/09/11 02:35:10;;;;;;;6.07;5.10;;;14.80;29.50;;;;;;5071512;28;34166;-77
2022/09/11 02:37:54;;;;;;;6.13;5.35;;;14.80;29.30;;;;;;5105902;28;34265;-77
2022/09/11 02:40:45;;;;;;;6.53;5.32;;;14.80;29.20;;;;;;5087840;28;34513;-77
2022/09/11 02:43:38;;;;;;;8.10;5.35;;;14.90;30.00;;;;;;5091413;28;34928;-77
2022/09/11 02:46:27;;;;;;;15.02;5.78;;;14.90;29.80;;;;;;5077358;28;34601;-77
2022/09/11 02:49:33;;;;;;;6.10;5.05;;;14.90;29.70;;;;;;5080813;28;34170;-76
2022/09/11 02:52:24;;;;;;;14.32;5.55;;;15.00;30.40;;;;;;5051783;28;34022;-76
2022/09/11 02:55:02;;;;;;;9.25;6.00;;;15.00;29.20;;;;;;5057131;28;35692;-76
2022/09/11 02:57:39;;;;;;;11.00;5.90;;;15.00;29.00;;;;;;5084749;28;34431;-76
2022/09/11 03:00:07;;;;;;;12.00;5.95;;;15.10;29.20;;;;;;5112036;27;34276;-77
2022/09/11 03:02:38;;;;;;;9.35;6.18;;;15.10;28.70;;;;;;5087192;28;34316;-77
2022/09/11 03:05:05;;;;;;;13.75;5.53;;;15.10;28.80;;;;;;5083289;28;36760;-77
2022/09/11 03:07:32;;;;;;;12.02;5.93;;;15.10;28.80;;;;;;5082606;28;34326;-76
2022/09/11 03:09:58;;;;;;;17.02;6.13;;;15.10;28.60;;;;;;5086849;28;34195;-76
2022/09/11 03:12:25;;;;;;;6.78;5.63;;;15.10;28.80;;;;;;5087591;28;34218;-77
2022/09/11 03:14:51;;;;;;;11.63;6.05;;;15.10;29.60;;;;;;5084710;28;35878;-77
2022/09/11 03:17:18;;;;;;;23.23;5.15;;;15.10;29.00;;;;;;5087429;28;34349;-77
2022/09/11 03:19:45;;;;;;;9.57;5.60;;;15.20;28.90;;;;;;5094812;28;34585;-77
2022/09/11 03:22:11;;;;;;;15.65;5.80;;;15.20;29.20;;;;;;5104867;28;34067;-77
2022/09/11 03:24:38;;;;;;;11.95;5.25;;;15.20;29.20;;;;;;5100332;28;34421;-76
2022/09/11 03:27:05;;;;;;;10.95;5.78;;;15.10;29.60;;;;;;5105102;28;34249;-76
2022/09/11 03:29:32;;;;;;;20.63;5.82;;;15.10;29.20;;;;;;5105214;28;34585;-76
2022/09/11 03:31:58;;;;;;;13.05;5.40;;;15.10;29.30;;;;;;5097621;28;34174;-76
2022/09/11 03:34:25;;;;;;;10.15;5.30;;;15.20;29.40;;;;;;5086403;28;35831;-76
2022/09/11 03:36:51;;;;;;;19.05;5.28;;;15.10;29.70;;;;;;5082451;28;34262;-77
2022/09/11 03:39:17;;;;;;;31.13;5.43;;;15.20;29.50;;;;;;5105150;28;34531;-76
2022/09/11 03:41:43;;;;;;;11.68;5.38;;;15.20;29.60;;;;;;5066800;28;34176;-77
2022/09/11 03:44:11;;;;;;;6.47;5.25;;;15.20;29.80;;;;;;5085931;28;36082;-76
2022/09/11 03:46:38;;;;;;;5.80;5.13;;;15.20;29.70;;;;;;5081360;28;35748;-77
2022/09/11 03:49:05;;;;;;;18.80;5.43;;;15.30;29.70;;;;;;5104535;28;34117;-77
2022/09/11 03:51:31;;;;;;;19.85;4.78;;;15.30;29.80;;;;;;5087026;28;34538;-76
2022/09/11 03:53:59;;;;;;;7.22;5.28;;;15.20;29.60;;;;;;5066664;28;35500;-76
2022/09/11 03:56:27;;;;;;;5.47;4.82;;;15.30;29.60;;;;;;5079162;28;34323;-76
2022/09/11 03:58:56;;;;;;;6.15;5.32;;;15.20;29.60;;;;;;5086939;28;34121;-76
2022/09/11 04:01:23;;;;;;;6.47;4.82;;;15.20;30.00;;;;;;5086510;28;34476;-77
2022/09/11 04:03:49;;;;;;;6.03;5.00;;;15.20;29.60;;;;;;5086698;28;35306;-77
2022/09/11 04:06:15;;;;;;;5.63;5.10;;;15.20;29.80;;;;;;5083200;28;35161;-76
2022/09/11 04:08:41;;;;;;;5.07;4.57;;;15.20;29.60;;;;;;5104325;28;34241;-77
2022/09/11 04:11:10;;;;;;;6.88;5.30;;;15.20;29.40;;;;;;5086333;28;34243;-76
2022/09/11 04:13:38;;;;;;;5.70;5.13;;;15.20;29.50;;;;;;5086188;28;36239;-76
2022/09/11 04:16:09;;;;;;;6.13;4.95;;;15.20;29.80;;;;;;5085436;28;34249;-77
2022/09/11 04:18:37;;;;;;;6.05;5.32;;;15.20;29.60;;;;;;5086247;28;34481;-77
2022/09/11 04:21:05;;;;;;;6.45;5.43;;;15.20;30.00;;;;;;5099968;28;34299;-76
2022/09/11 04:23:32;;;;;;;6.05;5.00;;;15.20;29.50;;;;;;5069068;28;36442;-77
2022/09/11 04:25:59;;;;;;;6.40;4.80;;;15.10;29.40;;;;;;5083675;28;34366;-76
2022/09/11 04:28:30;;;;;;;7.20;4.65;;;15.10;28.90;;;;;;5084663;28;34422;-78
2022/09/11 04:31:01;;;;;;;10.10;4.97;;;15.00;29.30;;;;;;5086195;28;34422;-77
2022/09/11 04:33:27;;;;;;;9.52;5.63;;;15.00;29.20;;;;;;5069407;28;36066;-77
2022/09/11 04:35:53;;;;;;;5.88;5.25;;;14.90;29.00;;;;;;5073161;28;34242;-77
2022/09/11 04:38:20;;;;;;;7.72;5.20;;;14.80;28.90;;;;;;5104595;28;34143;-77
2022/09/11 04:40:46;;;;;;;19.48;5.68;;;14.80;28.80;;;;;;5052987;28;34257;-77
2022/09/11 04:43:12;;;;;;;19.15;5.03;;;14.70;28.90;;;;;;5079958;28;35612;-77
2022/09/11 04:45:39;;;;;;;10.73;4.93;;;14.70;29.40;;;;;;5073353;28;34421;-77
2022/09/11 04:48:05;;;;;;;15.55;5.43;;;14.60;29.80;;;;;;5067695;28;34301;-77
2022/09/11 04:50:31;;;;;;;10.35;5.20;;;14.60;29.50;;;;;;5083616;28;34609;-77
2022/09/11 04:52:57;;;;;;;13.52;5.07;;;14.60;29.40;;;;;;5085657;28;36559;-77
2022/09/11 04:55:24;;;;;;;25.55;5.30;;;14.60;29.40;;;;;;5103702;28;34471;-77
2022/09/11 04:57:52;;;;;;;12.95;4.53;;;14.50;29.40;;;;;;5092547;28;34313;-77
2022/09/11 05:00:18;;;;;;;24.58;4.90;;;14.50;29.40;;;;;;5085415;28;34606;-78
2022/09/11 05:02:46;;;;;;;7.28;4.50;;;14.50;29.80;;;;;;5103511;28;34282;-77
2022/09/11 05:05:12;;;;;;;12.43;4.45;;;14.40;29.00;;;;;;5084852;28;34299;-77
2022/09/11 05:07:48;;;;;;;16.15;4.72;;;14.40;29.50;;;;;;5084481;28;34252;-77
2022/09/11 05:10:15;;;;;;;5.85;4.82;;;14.40;30.00;;;;;;5060459;28;34304;-77
2022/09/11 05:12:41;;;;;;;8.15;4.57;;;14.30;29.50;;;;;;5067481;28;35492;-77
2022/09/11 05:15:30;;;;;;;5.03;4.53;;;14.30;29.60;;;;;;5054601;27;34282;-77
2022/09/11 05:18:18;;;;;;;7.53;5.20;;;14.30;30.00;;;;;;5085931;27;34389;-78
2022/09/11 05:20:44;;;;;;;7.97;4.45;;;14.40;29.60;;;;;;5101675;27;36000;-77
2022/09/11 05:23:11;;;;;;;5.07;4.40;;;14.30;29.60;;;;;;5105454;27;35943;-76
2022/09/11 05:25:37;;;;;;;8.95;4.55;;;14.30;29.40;;;;;;5105706;27;35475;-76
2022/09/11 05:28:05;;;;;;;9.93;5.05;;;14.30;29.30;;;;;;5105079;27;35751;-77
2022/09/11 05:30:30;;;;;;;5.03;4.30;;;14.30;29.50;;;;;;5106086;27;34236;-76
2022/09/11 05:32:56;;;;;;;9.00;5.10;;;14.30;29.40;;;;;;5105433;27;35518;-76
2022/09/11 05:35:23;;;;;;;10.07;4.72;;;14.40;29.60;;;;;;5124215;27;34203;-76
2022/09/11 05:37:49;;;;;;;5.30;4.80;;;14.40;29.40;;;;;;5126167;27;34166;-76
2022/09/11 05:40:18;;;;;;;9.05;5.18;;;14.40;29.40;;;;;;5127566;27;34577;-77
2022/09/11 05:42:44;;;;;;;7.72;5.28;;;14.40;28.50;;;;;;5109386;27;36154;-77
2022/09/11 05:45:10;;;;;;;13.30;5.28;;;14.40;29.70;;;;;;5128010;27;34090;-76
2022/09/11 05:47:35;;;;;;;5.95;4.50;;;14.50;28.70;;;;;;5109407;27;34075;-77
2022/09/11 05:50:02;;;;;;;6.50;4.93;;;14.50;28.90;;;;;;5106635;27;34086;-76
2022/09/11 05:52:29;;;;;;;5.65;5.05;;;14.50;29.10;;;;;;5092862;28;35832;-77
2022/09/11 05:54:55;;;;;;;9.32;5.07;;;14.50;28.70;;;;;;5098000;27;34333;-76
2022/09/11 05:57:21;;;;;;;10.90;5.10;;;14.50;28.60;;;;;;5107657;27;34324;-77
2022/09/11 05:59:47;;;;;;;14.05;5.65;;;14.60;28.90;;;;;;5066396;28;34681;-78
2022/09/11 06:02:13;;;;;;;9.75;5.60;;;14.60;28.60;;;;;;5125528;27;34936;-77
2022/09/11 06:04:39;;;;;;;28.80;6.35;;;14.60;28.70;;;;;;5108096;27;34457;-77
2022/09/11 06:07:05;;;;;;;21.90;6.30;;;14.70;29.40;;;;;;5108525;27;34478;-77
2022/09/11 06:09:31;;;;;;;18.52;6.32;;;14.70;28.80;;;;;;5127519;27;34334;-77
2022/09/11 06:11:56;;;;;;;12.50;5.57;;;14.80;28.60;;;;;;5087593;28;35543;-77
2022/09/11 06:14:24;;;;;;;20.83;6.32;;;14.90;29.00;;;;;;5108625;27;34432;-77
2022/09/11 06:16:50;;;;;;;29.63;6.75;;;14.90;28.70;;;;;;5109139;27;34248;-77
2022/09/11 06:19:16;;;;;;;22.83;5.65;;;15.00;28.90;;;;;;5108679;27;35359;-77
2022/09/11 06:21:42;;;;;;;12.15;6.65;;;15.10;29.10;;;;;;5074539;27;35790;-77
2022/09/11 06:24:08;;;;;;;17.60;6.18;;;15.10;28.80;;;;;;5090667;27;34357;-77
2022/09/11 06:26:34;;;;;;;21.05;6.80;;;15.20;28.60;;;;;;5106455;27;34217;-77
2022/09/11 06:29:00;;;;;;;17.27;6.47;;;15.20;29.20;;;;;;5107886;27;34139;-77
2022/09/11 06:31:27;;;;;;;17.92;7.07;;;15.20;29.20;;;;;;5109869;27;34103;-77
2022/09/11 06:33:53;;;;;;;24.52;8.25;;;15.30;29.50;;;;;;5108454;27;34192;-77
2022/09/11 06:36:23;;;;;;;13.32;7.70;;;15.40;29.10;;;;;;5108968;27;34359;-77
2022/09/11 06:38:57;;;;;;;21.55;8.30;;;15.50;29.30;;;;;;5101037;27;34401;-78
2022/09/11 06:41:24;;;;;;;34.67;8.77;;;15.60;29.60;;;;;;5126388;27;35134;-77
2022/09/11 06:43:51;;;;;;;32.78;9.02;;;15.60;29.20;;;;;;5091361;27;34120;-78
2022/09/11 06:46:19;;;;;;;20.83;8.15;;;15.60;28.90;;;;;;5098764;28;34171;-77
2022/09/11 06:48:48;;;;;;;19.40;8.13;;;15.60;29.10;;;;;;5098381;27;34170;-77
2022/09/11 06:51:17;;;;;;;11.95;8.02;;;15.60;29.20;;;;;;5107749;27;35704;-78
2022/09/11 06:53:53;;;;;;;14.35;8.40;;;15.60;29.20;;;;;;5108064;27;34411;-78
2022/09/11 06:56:19;;;;;;;12.65;9.20;;;15.70;29.20;;;;;;5087013;27;34284;-79
2022/09/11 06:58:46;;;;;;;13.32;9.25;;;15.80;29.30;;;;;;5108301;27;34212;-78
2022/09/11 07:01:15;;;;;;;12.70;9.40;;;15.90;29.10;;;;;;5093192;28;35562;-79
2022/09/11 07:03:45;;;;;;;13.93;10.05;;;15.90;29.50;;;;;;5102936;27;34089;-77
2022/09/11 07:06:13;;;;;;;16.15;10.05;;;16.00;29.50;;;;;;5125318;27;34050;-77
2022/09/11 07:08:39;;;;;;;16.15;10.43;;;16.10;29.20;;;;;;5101631;28;34166;-77
2022/09/11 07:11:11;;;;;;;15.50;8.95;;;16.10;29.10;;;;;;5090537;27;35788;-79
2022/09/11 07:13:39;;;;;;;15.10;9.95;;;16.10;29.80;;;;;;5100635;27;34672;-78
2022/09/11 07:16:08;;;;;;;25.27;7.93;;;16.10;29.90;;;;;;5104632;27;34384;-78
2022/09/11 07:18:36;;;;;;;14.80;8.15;;;16.20;30.30;;;;;;5136668;27;34332;-77
2022/09/11 07:21:05;;;;;;;26.27;8.32;;;16.20;29.80;;;;;;5082619;28;36374;-77
2022/09/11 07:23:33;;;;;;;18.23;7.85;;;16.30;29.90;;;;;;5099462;28;34017;-77
2022/09/11 07:26:15;;;;;;;26.30;8.27;;;16.40;29.80;;;;;;5087727;28;34652;-78
2022/09/11 07:28:41;;;;;;;24.02;8.65;;;16.40;29.50;;;;;;5087501;28;34159;-77
2022/09/11 07:31:11;;;;;;;16.25;8.15;;;16.40;29.50;;;;;;5069942;28;35791;-78
2022/09/11 07:33:39;;;;;;;27.55;8.50;;;16.50;29.70;;;;;;5070168;28;34405;-77
2022/09/11 07:36:10;;;;;;;21.23;9.00;;;16.60;29.30;;;;;;5087800;28;34280;-78
2022/09/11 07:38:38;;;;;;;21.90;9.25;;;16.70;29.60;;;;;;5077493;28;34223;-78
2022/09/11 07:41:05;;;;;;;23.00;8.57;;;16.70;29.40;;;;;;5105133;28;34368;-78
2022/09/11 07:43:31;;;;;;;11.90;8.38;;;16.70;29.00;;;;;;5067260;28;34315;-77
2022/09/11 07:45:57;;;;;;;22.80;8.90;;;16.70;29.50;;;;;;5055995;28;34373;-77
2022/09/11 07:48:23;;;;;;;13.50;8.57;;;16.80;29.00;;;;;;5087087;28;34133;-77
2022/09/11 07:50:56;;;;;;;12.20;8.55;;;16.90;28.80;;;;;;5071303;28;35473;-76
2022/09/11 07:53:23;;;;;;;22.27;8.52;;;17.00;29.90;;;;;;5086304;28;34374;-77
2022/09/11 07:55:49;;;;;;;14.93;8.63;;;17.00;29.60;;;;;;5064326;28;34253;-76
2022/09/11 07:58:15;;;;;;;11.15;7.93;;;17.10;29.20;;;;;;5070694;28;34331;-78
2022/09/11 08:00:41;;;;;;;12.25;8.57;;;17.30;29.20;;;;;;5052299;28;36506;-76
2022/09/11 08:03:13;;;;;;;15.38;8.63;;;17.50;28.90;;;;;;5048510;27;34222;-78
2022/09/11 08:05:39;;;;;;;13.63;9.35;;;17.60;29.40;;;;;;5083233;28;34301;-77
2022/09/11 08:08:05;;;;;;;11.20;8.77;;;17.70;29.20;;;;;;5069587;28;34854;-77
2022/09/11 08:10:32;;;;;;;13.02;8.85;;;17.80;29.00;;;;;;5104479;28;34900;-76
2022/09/11 08:12:59;;;;;;;13.10;9.50;;;17.90;28.80;;;;;;5062307;28;34133;-77
2022/09/11 08:15:25;;;;;;;10.88;7.90;;;18.00;29.20;;;;;;5087337;28;34028;-78
2022/09/11 08:17:51;;;;;;;12.68;8.88;;;18.10;29.10;;;;;;5069004;28;34631;-76
2022/09/11 08:20:17;;;;;;;10.43;8.02;;;18.20;29.00;;;;;;5085169;28;34495;-77
2022/09/11 08:22:43;;;;;;;12.23;9.18;;;18.20;28.60;;;;;;5099352;27;35382;-77
2022/09/11 08:25:09;;;;;;;13.38;8.52;;;18.30;28.70;;;;;;5094639;28;34356;-76
2022/09/11 08:27:36;;;;;;;11.70;8.57;;;18.40;28.50;;;;;;5070099;28;34523;-79
2022/09/11 08:30:03;;;;;;;12.20;8.25;;;18.50;29.40;;;;;;5052982;28;35796;-78
2022/09/11 08:32:29;;;;;;;11.65;8.30;;;18.70;29.30;;;;;;5064868;28;34116;-78
2022/09/11 08:34:55;;;;;;;11.48;8.60;;;19.00;29.00;;;;;;5087014;28;34145;-77
2022/09/11 08:37:21;;;;;;;11.32;7.95;;;19.20;29.10;;;;;;5086707;28;34350;-77
2022/09/11 08:39:47;;;;;;;9.63;7.95;;;19.40;28.40;;;;;;5069840;28;35645;-77
2022/09/11 08:42:15;;;;;;;11.40;8.32;;;19.60;27.70;;;;;;5085703;28;34373;-77
2022/09/11 08:44:49;;;;;;;9.88;7.18;;;19.80;27.80;;;;;;5104795;28;34426;-78
2022/09/11 08:47:27;;;;;;;9.68;7.72;;;20.00;27.30;;;;;;5080507;28;34335;-77
2022/09/11 08:50:02;;;;;;;9.65;7.32;;;20.20;27.40;;;;;;5084499;27;35526;-76
2022/09/11 08:52:28;;;;;;;11.70;7.60;;;20.40;26.50;;;;;;5083169;28;34302;-77
2022/09/11 08:54:57;;;;;;;8.75;7.28;;;20.40;27.10;;;;;;5086285;28;34314;-77
2022/09/11 08:57:43;;;;;;;8.40;7.18;;;20.40;26.30;;;;;;5077398;28;34388;-76
2022/09/11 09:00:36;;;;;;;11.43;6.60;;;20.60;25.20;;;;;;5085518;28;35731;-77
2022/09/11 09:03:29;;;;;;;10.45;6.43;;;20.80;21.80;;;;;;5103600;28;34362;-77
2022/09/11 09:06:13;;;;;;;8.93;6.28;;;20.90;24.00;;;;;;5104069;28;34174;-78
2022/09/11 09:09:07;;;;;;;6.88;5.63;;;21.00;24.40;;;;;;5078623;28;34049;-76
2022/09/11 09:11:47;;;;;;;11.30;6.05;;;21.00;25.30;;;;;;5069050;27;35630;-77
2022/09/11 09:14:48;;;;;;;7.07;5.90;;;21.20;23.50;;;;;;5069117;28;34213;-78
2022/09/11 09:17:24;;;;;;;7.30;5.53;;;21.30;23.00;;;;;;5071056;28;34211;-77
2022/09/11 09:20:01;;;;;;;7.07;5.35;;;21.40;21.70;;;;;;5090021;28;34319;-77
2022/09/11 09:22:41;;;;;;;8.48;5.47;;;21.50;23.20;;;;;;5070479;28;35668;-79
2022/09/11 09:25:16;;;;;;;8.57;5.85;;;21.50;21.10;;;;;;5081410;28;34214;-77
2022/09/11 09:27:46;;;;;;;9.23;6.15;;;21.60;23.10;;;;;;5085581;28;34305;-76
2022/09/11 09:30:16;;;;;;;8.32;6.45;;;21.80;23.00;;;;;;5068746;28;34482;-76
2022/09/11 09:32:52;;;;;;;9.68;6.07;;;21.90;21.90;;;;;;5064227;28;36073;-76
2022/09/11 09:35:24;;;;;;;16.50;5.28;;;21.90;22.10;;;;;;5081208;28;34076;-76
2022/09/11 09:37:50;;;;;;;5.70;4.82;;;22.00;21.90;;;;;;5104123;28;34197;-79
2022/09/11 09:40:17;;;;;;;7.53;4.47;;;22.10;22.70;;;;;;5085461;28;34242;-76
2022/09/11 09:43:10;;;;;;;6.03;5.03;;;22.20;21.90;;;;;;5068790;28;34160;-78
2022/09/11 09:45:43;;;;;;;6.60;5.20;;;22.40;18.30;;;;;;5068152;28;34175;-76
2022/09/11 09:48:10;;;;;;;5.47;4.57;;;22.60;20.50;;;;;;5102995;28;34373;-76
2022/09/11 09:50:40;;;;;;;6.82;4.05;;;22.90;21.20;;;;;;5099348;28;34273;-76
2022/09/11 09:53:19;;;;;;;4.82;4.32;;;23.30;20.00;;;;;;5078435;28;35755;-76
2022/09/11 09:55:46;;;;;;;4.20;3.67;;;23.50;17.60;;;;;;5076484;28;34173;-76
2022/09/11 09:58:13;;;;;;;4.90;4.30;;;23.40;20.50;;;;;;5084780;28;34240;-76
2022/09/11 10:00:40;;;;;;;3.70;3.38;;;23.50;20.30;;;;;;5103252;28;34330;-76
2022/09/11 10:03:19;;;;;;;5.68;3.30;;;23.40;20.00;;;;;;5084356;28;34271;-76
2022/09/11 10:05:46;;;;;;;3.63;3.33;;;23.50;17.80;;;;;;5077759;27;34175;-75
2022/09/11 10:08:30;;;;;;;5.22;3.25;;;23.50;20.00;;;;;;5064917;28;34136;-76
2022/09/11 10:10:59;;;;;;;4.18;3.15;;;23.40;17.40;;;;;;5079052;28;34123;-76
2022/09/11 10:13:28;;;;;;;3.90;2.88;;;23.30;19.50;;;;;;5067941;28;35604;-76
2022/09/11 10:15:58;;;;;;;4.63;2.88;;;23.20;19.90;;;;;;5099361;28;34258;-77
2022/09/11 10:18:36;;;;;;;3.28;2.92;;;23.10;19.90;;;;;;5069781;28;34309;-77
2022/09/11 10:21:22;;;;;;;5.05;3.10;;;23.00;18.10;;;;;;5082275;28;34400;-77
2022/09/11 10:23:55;;;;;;;3.22;2.70;;;23.00;15.70;;;;;;5082675;28;34919;-76
2022/09/11 10:26:33;;;;;;;4.00;3.03;;;23.00;19.10;;;;;;5087043;28;34077;-76
2022/09/11 10:29:06;;;;;;;5.78;2.80;;;23.00;19.30;;;;;;5078903;28;34146;-76
2022/09/11 10:31:35;;;;;;;5.22;4.03;;;23.00;19.60;;;;;;5074527;28;34429;-77
2022/09/11 10:34:02;;;;;;;3.92;3.03;;;23.00;19.20;;;;;;5113132;27;34199;-77
2022/09/11 10:36:30;;;;;;;5.13;3.38;;;22.90;19.40;;;;;;5104167;28;34253;-79
2022/09/11 10:38:59;;;;;;;4.45;2.67;;;22.90;19.00;;;;;;5053050;28;34149;-77
2022/09/11 10:41:27;;;;;;;2.85;2.53;;;22.90;19.50;;;;;;5058003;28;34605;-78
2022/09/11 10:43:59;;;;;;;5.20;2.47;;;22.90;18.50;;;;;;5075060;28;35604;-78
2022/09/11 10:46:31;;;;;;;2.83;2.58;;;22.90;18.80;;;;;;5062803;28;34323;-77
2022/09/11 10:49:18;;;;;;;2.70;2.30;;;22.90;18.50;;;;;;5086444;28;34194;-78
2022/09/11 10:51:59;;;;;;;3.85;1.83;;;22.90;18.50;;;;;;5070613;28;34599;-78
2022/09/11 10:54:44;;;;;;;5.35;2.10;;;23.00;17.50;;;;;;5090384;28;35539;-79
2022/09/11 10:57:26;;;;;;;3.58;2.08;;;23.10;15.90;;;;;;5092456;28;34211;-78
2022/09/11 11:00:14;;;;;;;4.15;2.90;;;23.10;16.90;;;;;;5083076;28;34150;-79
2022/09/11 11:02:45;;;;;;;3.13;2.72;;;23.10;15.00;;;;;;5089460;28;34119;-78
2022/09/11 11:05:30;;;;;;;2.83;1.88;;;23.00;17.60;;;;;;5068920;28;34368;-78
2022/09/11 11:08:28;;;;;;;1.77;1.67;;;23.00;17.10;;;;;;5083011;28;34461;-79
2022/09/11 11:11:18;;;;;;;3.28;1.75;;;22.90;14.90;;;;;;5072457;28;34125;-77
2022/09/11 11:14:14;;;;;;;5.18;2.05;;;22.90;16.70;;;;;;5088909;28;34129;-77
2022/09/11 11:17:11;;;;;;;2.38;1.83;;;22.90;17.00;;;;;;5057436;28;35838;-78
2022/09/11 11:20:06;;;;;;;3.38;2.10;;;23.00;15.10;;;;;;5092113;27;34594;-79
2022/09/11 11:23:02;;;;;;;2.05;1.90;;;23.00;15.00;;;;;;5092098;28;34342;-78
2022/09/11 11:25:56;;;;;;;2.28;1.95;;;23.20;12.90;;;;;;5098618;27;34139;-78
2022/09/11 11:28:39;;;;;;;3.70;2.00;;;23.40;13.40;;;;;;5093709;28;36105;-80
2022/09/11 11:31:26;;;;;;;2.45;2.05;;;23.60;14.30;;;;;;5084531;28;34236;-78
2022/09/11 11:34:15;;;;;;;2.35;2.15;;;23.80;13.90;;;;;;5090935;28;34287;-78
2022/09/11 11:36:52;;;;;;;2.78;2.13;;;23.90;13.00;;;;;;5063913;28;34335;-81
2022/09/11 11:39:25;;;;;;;2.35;1.88;;;24.20;15.40;;;;;;5115160;27;36350;-81
2022/09/11 11:42:06;;;;;;;2.70;1.77;;;24.30;14.00;;;;;;5088263;28;34121;-79
2022/09/11 11:44:47;;;;;;;2.13;1.70;;;24.30;13.40;;;;;;5087867;28;34303;-78
2022/09/11 11:47:15;;;;;;;2.85;1.70;;;24.20;14.30;;;;;;5091749;28;34492;-79
2022/09/11 11:49:51;;;;;;;2.92;2.00;;;24.10;15.20;;;;;;5093973;28;35793;-79
2022/09/11 11:52:36;;;;;;;2.65;2.10;;;24.00;14.40;;;;;;5071700;28;34078;-79
2022/09/11 11:55:22;;;;;;;2.60;1.85;;;23.80;14.20;;;;;;5090992;28;34456;-79
2022/09/11 11:58:03;;;;;;;1.92;1.70;;;23.80;14.90;;;;;;5072280;28;34553;-79
2022/09/11 12:00:37;;;;;;;3.70;2.45;;;23.60;15.20;;;;;;5091392;28;35853;-79
2022/09/11 12:05:55;;;;;;;3.35;2.22;;;23.50;14.50;;;;;;5106787;28;34232;-80
2022/09/11 12:08:22;;;;;;;3.33;1.70;;;23.60;16.10;;;;;;5075767;28;34190;-79
2022/09/11 12:11:01;;;;;;;2.47;2.00;;;23.70;15.60;;;;;;5075669;28;35901;-81
2022/09/11 12:13:32;;;;;;;2.85;2.17;;;24.00;12.50;;;;;;5093456;28;34191;-79
2022/09/11 12:16:13;;;;;;;1.83;1.60;;;24.20;13.40;;;;;;5107925;28;34133;-78
2022/09/11 12:18:41;;;;;;;1.67;1.58;;;24.40;12.10;;;;;;5087756;28;34357;-78
2022/09/11 12:21:46;;;;;;;4.53;1.83;;;24.60;14.50;;;;;;5087349;28;34346;-76
2022/09/11 12:24:16;;;;;;;2.63;2.00;;;24.90;9.90;;;;;;5060240;28;34217;-77
2022/09/11 12:26:43;;;;;;;2.67;1.60;;;25.10;13.10;;;;;;5082698;28;34391;-82
2022/09/11 12:29:48;;;;;;;2.05;1.75;;;25.00;12.90;;;;;;5086685;28;34092;-78
2022/09/11 12:32:25;;;;;;;2.35;1.45;;;24.80;7.70;;;;;;5067121;28;35668;-77
2022/09/11 12:34:59;;;;;;;1.60;1.45;;;24.80;11.40;;;;;;5069444;27;34063;-79
2022/09/11 12:37:34;;;;;;;2.88;1.50;;;24.90;11.40;;;;;;5082733;28;34229;-79
2022/09/11 12:40:17;;;;;;;1.40;1.30;;;25.00;12.20;;;;;;5088988;28;34290;-80
2022/09/11 12:42:53;;;;;;;1.48;1.30;;;25.00;10.30;;;;;;5109646;28;34572;-80
2022/09/11 12:45:30;;;;;;;1.80;1.52;;;25.00;12.30;;;;;;5085511;28;34416;-78
2022/09/11 12:48:08;;;;;;;1.60;1.50;;;25.10;10.50;;;;;;5085216;28;34188;-80
2022/09/11 12:50:35;;;;;;;1.50;1.40;;;25.30;10.20;;;;;;5090273;28;34289;-79
2022/09/11 12:53:03;;;;;;;1.63;1.50;;;25.40;11.60;;;;;;5080872;28;35800;-79
2022/09/11 12:55:38;;;;;;;1.65;1.20;;;25.50;11.40;;;;;;5076644;27;34100;-79
2022/09/11 12:58:24;;;;;;;2.33;1.40;;;25.60;11.40;;;;;;5086963;28;34238;-80
2022/09/11 13:01:19;;;;;;;2.13;1.70;;;25.70;9.40;;;;;;5088099;28;34364;-84
2022/09/11 13:04:02;;;;;;;1.45;1.35;;;25.60;6.60;;;;;;5068826;28;35861;-79
2022/09/11 13:06:47;;;;;;;1.42;1.27;;;25.70;7.50;;;;;;5085046;28;33720;-82
2022/09/11 13:09:33;;;;;;;1.30;1.20;;;25.80;7.60;;;;;;5074310;28;34168;-81
2022/09/11 13:12:34;;;;;;;1.10;1.10;;;26.00;5.60;;;;;;5086538;28;34443;-81
2022/09/11 13:15:01;;;;;;;1.60;1.23;;;26.10;7.60;;;;;;5078381;28;36008;-81